Time;durP1;ratioP1;P1;durP2;ratioP2;P2;SDS_P1;SDS_P2;PMS_P1;PMS_P2;Temp;Humidity;BMP_temperature;BMP_pressure;BME280_temperature;BME280_humidity;BME280_pressure;Samples;Min_cycle;Max_cycle;Signal;HPM_P1;HPM_P2
2023/06/04 00:01:04;;;;;;;8.82;1.80;;;13.90;99.90;;;;;;5105569;28;20412;-74
2023/06/04 00:03:31;;;;;;;7.53;1.77;;;13.90;99.90;;;;;;5092344;28;20415;-74
2023/06/04 00:05:56;;;;;;;9.35;1.90;;;13.90;99.90;;;;;;5106509;28;20453;-75
2023/06/04 00:08:22;;;;;;;7.22;1.70;;;13.80;99.90;;;;;;5104372;28;20404;-74
2023/06/04 00:10:48;;;;;;;9.48;1.90;;;13.80;99.90;;;;;;5095033;28;20427;-75
2023/06/04 00:13:14;;;;;;;8.27;1.90;;;13.70;99.90;;;;;;5103028;28;20439;-74
2023/06/04 00:15:40;;;;;;;8.57;2.03;;;13.70;99.90;;;;;;5095270;28;20477;-74
2023/06/04 00:18:05;;;;;;;7.10;1.93;;;13.70;99.90;;;;;;5100082;28;20408;-74
2023/06/04 00:20:31;;;;;;;9.77;2.42;;;13.70;99.90;;;;;;5103857;28;20443;-74
2023/06/04 00:22:56;;;;;;;8.30;2.50;;;13.70;99.90;;;;;;5101644;28;20457;-74
2023/06/04 00:25:22;;;;;;;8.23;2.10;;;13.60;99.90;;;;;;5095714;28;20489;-74
2023/06/04 00:27:48;;;;;;;8.45;2.13;;;13.60;99.90;;;;;;5086240;28;20923;-74
2023/06/04 00:30:14;;;;;;;8.63;2.27;;;13.70;99.90;;;;;;5096915;28;20855;-74
2023/06/04 00:32:40;;;;;;;9.07;2.25;;;13.70;99.90;;;;;;5080818;28;20474;-74
2023/06/04 00:35:06;;;;;;;10.80;2.30;;;13.70;99.90;;;;;;5085476;28;20414;-74
2023/06/04 00:37:32;;;;;;;6.25;2.10;;;13.60;99.90;;;;;;5090502;28;20485;-74
2023/06/04 00:39:58;;;;;;;9.60;2.75;;;13.60;99.90;;;;;;5100266;28;20985;-74
2023/06/04 00:42:24;;;;;;;8.30;2.17;;;13.60;99.90;;;;;;5097212;28;20402;-74
2023/06/04 00:44:49;;;;;;;9.73;2.30;;;13.50;99.90;;;;;;5108709;28;20415;-74
2023/06/04 00:47:16;;;;;;;9.60;2.40;;;13.60;99.90;;;;;;5109576;28;20400;-74
2023/06/04 00:49:42;;;;;;;11.00;2.42;;;13.50;99.90;;;;;;5103493;28;20402;-74
2023/06/04 00:52:09;;;;;;;9.30;2.30;;;13.50;99.90;;;;;;5099813;28;20428;-74
2023/06/04 00:54:36;;;;;;;7.88;1.95;;;13.50;99.90;;;;;;5106915;28;20441;-74
2023/06/04 00:57:02;;;;;;;9.98;2.15;;;13.40;99.90;;;;;;5098972;28;20531;-73
2023/06/04 00:59:32;;;;;;;11.13;2.60;;;13.40;99.90;;;;;;5104727;28;20489;-74
2023/06/04 01:02:04;;;;;;;8.53;2.10;;;13.40;99.90;;;;;;5107624;28;20962;-74
2023/06/04 01:04:53;;;;;;;10.05;2.25;;;13.30;99.90;;;;;;5107169;28;20439;-74
2023/06/04 01:07:19;;;;;;;9.35;2.58;;;13.30;99.90;;;;;;5099709;28;20436;-74
2023/06/04 01:09:45;;;;;;;6.82;2.00;;;13.30;99.90;;;;;;5102183;28;20430;-73
2023/06/04 01:12:11;;;;;;;11.68;2.22;;;13.30;99.90;;;;;;5101748;28;20406;-74
2023/06/04 01:14:37;;;;;;;8.65;2.05;;;13.30;99.90;;;;;;5102459;28;20432;-74
2023/06/04 01:17:51;;;;;;;7.73;2.00;;;13.30;99.90;;;;;;5089941;28;20445;-74
2023/06/04 01:20:17;;;;;;;11.73;2.15;;;13.20;99.90;;;;;;5015226;28;20482;-74
2023/06/04 01:22:51;;;;;;;8.00;2.00;;;13.20;99.90;;;;;;5039633;28;20472;-74
2023/06/04 01:25:23;;;;;;;9.13;1.90;;;13.20;99.90;;;;;;5030076;28;20412;-74
2023/06/04 01:27:52;;;;;;;9.10;2.28;;;13.20;99.90;;;;;;5093765;28;20413;-74
2023/06/04 01:30:23;;;;;;;9.50;2.05;;;13.20;99.90;;;;;;5108513;28;20434;-73
2023/06/04 01:32:49;;;;;;;7.80;2.28;;;13.10;99.90;;;;;;5103300;28;21986;-74
2023/06/04 01:35:15;;;;;;;8.85;2.20;;;13.10;99.90;;;;;;5089496;28;20503;-74
2023/06/04 01:37:40;;;;;;;10.90;2.17;;;13.10;99.90;;;;;;5103631;28;20477;-74
2023/06/04 01:40:08;;;;;;;10.10;2.10;;;13.10;99.90;;;;;;5108496;28;20432;-74
2023/06/04 01:42:34;;;;;;;8.38;2.00;;;13.00;99.90;;;;;;5091242;28;20867;-74
2023/06/04 01:44:59;;;;;;;8.38;1.88;;;13.10;99.90;;;;;;5098156;28;20520;-74
2023/06/04 01:47:25;;;;;;;10.02;2.63;;;13.00;99.90;;;;;;5104135;28;20816;-74
2023/06/04 01:49:51;;;;;;;9.77;2.33;;;13.00;99.90;;;;;;5097131;28;20441;-74
2023/06/04 01:52:16;;;;;;;11.35;2.60;;;13.00;99.90;;;;;;5100758;28;20410;-74
2023/06/04 01:54:42;;;;;;;10.83;2.63;;;13.00;99.90;;;;;;5106860;28;20505;-74
2023/06/04 01:57:09;;;;;;;10.15;2.40;;;13.00;99.90;;;;;;5093368;28;20410;-74
2023/06/04 01:59:36;;;;;;;8.25;2.20;;;12.90;99.90;;;;;;5107812;28;20396;-74
2023/06/04 02:02:02;;;;;;;10.03;2.33;;;12.90;99.90;;;;;;5104095;28;20579;-74
2023/06/04 02:04:28;;;;;;;8.27;2.70;;;12.90;99.90;;;;;;5107697;28;20403;-74
2023/06/04 02:06:54;;;;;;;10.15;2.55;;;12.90;99.90;;;;;;5106408;28;20895;-74
2023/06/04 02:09:19;;;;;;;8.18;2.60;;;12.90;99.90;;;;;;5106937;28;20812;-74
2023/06/04 02:11:45;;;;;;;10.93;3.23;;;12.80;99.90;;;;;;5105732;28;20434;-74
2023/06/04 02:14:10;;;;;;;10.03;2.50;;;12.80;99.90;;;;;;5088703;28;20489;-74
2023/06/04 02:16:37;;;;;;;9.98;2.45;;;12.80;99.90;;;;;;5103558;28;20402;-74
2023/06/04 02:19:03;;;;;;;10.52;2.85;;;12.80;99.90;;;;;;5107248;28;20412;-74
2023/06/04 02:21:29;;;;;;;6.37;2.37;;;12.80;99.90;;;;;;5104000;28;20821;-74
2023/06/04 02:23:54;;;;;;;11.45;2.72;;;12.80;99.90;;;;;;5104927;28;20918;-74
2023/06/04 02:26:21;;;;;;;10.57;2.77;;;12.70;99.90;;;;;;5102615;28;20771;-74
2023/06/04 02:28:47;;;;;;;12.43;3.00;;;12.70;99.90;;;;;;5096812;28;20932;-74
2023/06/04 02:31:12;;;;;;;9.63;3.00;;;12.70;99.90;;;;;;5100235;28;20406;-74
2023/06/04 02:33:38;;;;;;;8.57;2.95;;;12.60;99.90;;;;;;5104609;28;20471;-74
2023/06/04 02:36:04;;;;;;;9.97;3.13;;;12.70;99.90;;;;;;5100453;28;20912;-74
2023/06/04 02:38:29;;;;;;;10.18;3.20;;;12.60;99.90;;;;;;5097513;28;20402;-74
2023/06/04 02:40:55;;;;;;;12.30;3.60;;;12.60;99.90;;;;;;5097972;28;21002;-74
2023/06/04 02:43:21;;;;;;;9.48;3.17;;;12.60;99.90;;;;;;5079608;28;20483;-74
2023/06/04 02:45:46;;;;;;;10.53;2.93;;;12.60;99.90;;;;;;5104194;28;20413;-74
2023/06/04 02:48:12;;;;;;;10.48;3.28;;;12.60;99.90;;;;;;5096985;28;20409;-74
2023/06/04 02:50:37;;;;;;;11.00;3.10;;;12.50;99.90;;;;;;5083289;28;20402;-74
2023/06/04 02:53:03;;;;;;;10.20;2.90;;;12.60;99.90;;;;;;5106038;28;20436;-74
2023/06/04 02:55:29;;;;;;;9.90;3.00;;;12.50;99.90;;;;;;5104132;28;20437;-74
2023/06/04 02:57:54;;;;;;;7.13;3.00;;;12.50;99.90;;;;;;5107190;28;20439;-74
2023/06/04 03:00:20;;;;;;;13.38;3.20;;;12.50;99.90;;;;;;5105023;28;20512;-74
2023/06/04 03:02:47;;;;;;;8.73;3.00;;;12.40;99.90;;;;;;5105451;28;20443;-74
2023/06/04 03:05:15;;;;;;;13.40;3.07;;;12.40;99.90;;;;;;5104409;28;20398;-74
2023/06/04 03:07:43;;;;;;;10.23;3.00;;;12.40;99.90;;;;;;5079943;28;20453;-74
2023/06/04 03:10:10;;;;;;;9.93;2.78;;;12.40;99.90;;;;;;5102349;28;20485;-74
2023/06/04 03:12:36;;;;;;;9.90;2.63;;;12.30;99.90;;;;;;5107417;28;20407;-74
2023/06/04 03:15:02;;;;;;;9.23;2.40;;;12.30;99.90;;;;;;5102978;28;20476;-74
2023/06/04 03:17:28;;;;;;;9.05;2.53;;;12.30;99.90;;;;;;5097387;28;20904;-73
2023/06/04 03:19:55;;;;;;;10.17;2.60;;;12.30;99.90;;;;;;5102814;28;20432;-74
2023/06/04 03:22:21;;;;;;;7.65;2.47;;;12.30;99.90;;;;;;5106647;28;20876;-74
2023/06/04 03:24:47;;;;;;;8.23;2.23;;;12.30;99.90;;;;;;5085861;28;20414;-73
2023/06/04 03:27:13;;;;;;;6.97;2.58;;;12.30;99.90;;;;;;5097099;28;20424;-74
2023/06/04 03:29:38;;;;;;;10.48;3.30;;;12.30;99.90;;;;;;5101108;28;20409;-74
2023/06/04 03:32:05;;;;;;;11.03;2.93;;;12.30;99.90;;;;;;5104474;28;20736;-74
2023/06/04 03:34:33;;;;;;;8.52;2.40;;;12.30;99.90;;;;;;5091370;28;20426;-74
2023/06/04 03:36:59;;;;;;;7.45;2.70;;;12.30;99.90;;;;;;5086788;28;20396;-74
2023/06/04 03:39:26;;;;;;;11.73;2.97;;;12.30;99.90;;;;;;5091265;28;20409;-73
2023/06/04 03:41:51;;;;;;;8.90;3.10;;;12.30;99.90;;;;;;5095391;28;20408;-74
2023/06/04 03:44:18;;;;;;;12.30;3.50;;;12.30;99.90;;;;;;5103248;28;20404;-73
2023/06/04 03:46:44;;;;;;;9.73;3.57;;;12.40;99.90;;;;;;5089017;28;20405;-74
2023/06/04 03:49:11;;;;;;;8.68;3.30;;;12.40;99.90;;;;;;5103907;28;20412;-74
2023/06/04 03:51:37;;;;;;;8.95;3.40;;;12.40;99.90;;;;;;5106058;28;20786;-74
2023/06/04 03:54:03;;;;;;;9.63;3.40;;;12.50;99.90;;;;;;5104203;28;20427;-74
2023/06/04 03:56:29;;;;;;;13.30;3.67;;;12.50;99.90;;;;;;5105894;28;20400;-74
2023/06/04 03:58:55;;;;;;;9.02;3.00;;;12.50;99.90;;;;;;5102365;28;20751;-74
2023/06/04 04:01:21;;;;;;;11.00;3.10;;;12.50;99.90;;;;;;5105727;28;20437;-74
2023/06/04 04:03:49;;;;;;;8.90;2.83;;;12.50;99.90;;;;;;5102050;28;20996;-74
2023/06/04 04:06:16;;;;;;;10.50;2.80;;;12.50;99.90;;;;;;5104678;28;20901;-73
2023/06/04 04:08:44;;;;;;;8.93;2.55;;;12.60;99.90;;;;;;5103498;28;20469;-74
2023/06/04 04:11:11;;;;;;;9.45;3.00;;;12.60;99.90;;;;;;5104709;28;20404;-74
2023/06/04 04:13:37;;;;;;;11.35;3.15;;;12.60;99.90;;;;;;5099133;28;21025;-74
2023/06/04 04:16:03;;;;;;;11.75;2.80;;;12.60;99.90;;;;;;5089302;28;20410;-74
2023/06/04 04:18:35;;;;;;;10.77;3.13;;;12.70;99.90;;;;;;5103323;28;20410;-74
2023/06/04 04:21:02;;;;;;;10.13;3.25;;;12.70;99.90;;;;;;5084377;28;20751;-74
2023/06/04 04:23:29;;;;;;;15.50;3.90;;;12.70;99.90;;;;;;5106926;28;20902;-74
2023/06/04 04:25:56;;;;;;;13.68;3.47;;;12.70;99.90;;;;;;5108128;28;20425;-74
2023/06/04 04:28:22;;;;;;;11.23;3.15;;;12.80;99.90;;;;;;5107827;28;20400;-74
2023/06/04 04:30:48;;;;;;;11.13;3.20;;;12.80;99.90;;;;;;5106965;28;20409;-74
2023/06/04 04:33:15;;;;;;;12.15;3.70;;;12.80;99.90;;;;;;5106469;28;21000;-74
2023/06/04 04:35:42;;;;;;;10.90;3.50;;;12.90;99.90;;;;;;5106369;28;20492;-74
2023/06/04 04:38:09;;;;;;;12.20;2.80;;;12.90;99.90;;;;;;5107793;28;20412;-74
2023/06/04 04:40:34;;;;;;;12.38;3.53;;;13.00;99.90;;;;;;5106041;28;20449;-74
2023/06/04 04:43:00;;;;;;;13.43;3.15;;;13.00;99.90;;;;;;5097191;28;20396;-74
2023/06/04 04:45:26;;;;;;;12.27;3.10;;;13.00;99.90;;;;;;5097069;28;20406;-74
2023/06/04 04:47:51;;;;;;;12.43;2.88;;;13.10;99.90;;;;;;5096958;28;20400;-74
2023/06/04 04:50:17;;;;;;;10.53;3.10;;;13.20;99.90;;;;;;5095494;28;20404;-74
2023/06/04 04:52:43;;;;;;;9.60;2.77;;;13.20;99.90;;;;;;5096310;28;20452;-74
2023/06/04 04:55:09;;;;;;;11.13;2.60;;;13.20;99.90;;;;;;5096667;28;20468;-74
2023/06/04 04:57:35;;;;;;;12.02;2.92;;;13.20;99.90;;;;;;5106640;28;20440;-74
2023/06/04 05:00:01;;;;;;;13.23;3.10;;;13.20;99.90;;;;;;5106944;28;20451;-74
2023/06/04 05:02:27;;;;;;;12.07;2.73;;;13.20;99.90;;;;;;5106496;28;20432;-74
2023/06/04 05:04:53;;;;;;;10.98;2.85;;;13.30;99.90;;;;;;5108307;28;20497;-74
2023/06/04 05:07:21;;;;;;;10.63;2.58;;;13.30;99.90;;;;;;5106442;28;20759;-74
2023/06/04 05:09:47;;;;;;;9.13;2.63;;;13.30;99.90;;;;;;5089861;28;20400;-74
2023/06/04 05:12:12;;;;;;;11.07;2.33;;;13.30;99.90;;;;;;5106685;28;20400;-74
2023/06/04 05:14:38;;;;;;;10.47;2.50;;;13.30;99.90;;;;;;5106350;28;21218;-74
2023/06/04 05:17:04;;;;;;;14.48;3.00;;;13.40;99.90;;;;;;5097309;28;20406;-74
2023/06/04 05:19:32;;;;;;;10.90;2.53;;;13.40;99.90;;;;;;5090356;28;20406;-74
2023/06/04 05:22:00;;;;;;;12.48;2.20;;;13.40;99.90;;;;;;5104535;28;20431;-74
2023/06/04 05:24:26;;;;;;;7.75;2.10;;;13.50;99.90;;;;;;5104544;28;20901;-74
2023/06/04 05:26:51;;;;;;;9.37;2.00;;;13.50;99.90;;;;;;5103200;28;20404;-74
2023/06/04 05:29:17;;;;;;;9.90;2.35;;;13.50;99.90;;;;;;5104529;28;20400;-74
2023/06/04 05:31:42;;;;;;;7.93;1.80;;;13.50;99.90;;;;;;5088971;28;20915;-74
2023/06/04 05:34:09;;;;;;;8.23;2.00;;;13.50;99.90;;;;;;5089652;28;20446;-75
2023/06/04 05:36:35;;;;;;;5.30;1.55;;;13.60;99.90;;;;;;5088847;28;20421;-74
2023/06/04 05:39:01;;;;;;;8.55;1.92;;;13.60;99.90;;;;;;5089662;28;20402;-74
2023/06/04 05:41:27;;;;;;;8.80;2.17;;;13.60;99.90;;;;;;5088400;28;20871;-74
2023/06/04 05:43:53;;;;;;;9.90;1.92;;;13.60;99.90;;;;;;5088692;28;20506;-74
2023/06/04 05:46:18;;;;;;;7.55;1.80;;;13.60;99.90;;;;;;5098571;28;20411;-74
2023/06/04 05:48:44;;;;;;;8.80;2.00;;;13.70;99.90;;;;;;5095057;28;20415;-74
2023/06/04 05:51:12;;;;;;;9.73;2.20;;;13.70;99.90;;;;;;5107105;28;20447;-74
2023/06/04 05:53:38;;;;;;;9.10;1.80;;;13.70;99.90;;;;;;5076203;28;20434;-74
2023/06/04 05:56:03;;;;;;;9.33;1.97;;;13.70;99.90;;;;;;5089521;28;20765;-74
2023/06/04 05:58:29;;;;;;;9.00;2.08;;;13.80;99.90;;;;;;5101044;28;20424;-74
2023/06/04 06:00:55;;;;;;;10.13;1.77;;;13.80;99.90;;;;;;5105440;28;20735;-74
2023/06/04 06:03:21;;;;;;;7.95;2.03;;;13.80;99.90;;;;;;5104410;28;21282;-74
2023/06/04 06:05:47;;;;;;;7.83;1.80;;;13.90;99.90;;;;;;5089721;28;20507;-74
2023/06/04 06:08:14;;;;;;;8.77;1.83;;;13.90;99.90;;;;;;5106552;28;20407;-74
2023/06/04 06:10:39;;;;;;;8.98;1.80;;;14.00;99.90;;;;;;5083001;28;20405;-74
2023/06/04 06:13:05;;;;;;;8.05;2.50;;;14.10;99.90;;;;;;5104652;28;20424;-73
2023/06/04 06:15:31;;;;;;;6.80;1.63;;;14.10;99.90;;;;;;5106807;28;20751;-74
2023/06/04 06:17:56;;;;;;;8.48;1.55;;;14.10;99.90;;;;;;5104850;28;20438;-74
2023/06/04 06:20:22;;;;;;;8.47;2.20;;;14.20;99.90;;;;;;5106337;28;20412;-74
2023/06/04 06:22:48;;;;;;;6.43;2.00;;;14.20;99.90;;;;;;5105032;28;20462;-74
2023/06/04 06:25:15;;;;;;;8.75;2.10;;;14.20;99.90;;;;;;5106696;28;20437;-74
2023/06/04 06:27:41;;;;;;;7.70;1.50;;;14.30;99.90;;;;;;5093010;28;20441;-74
2023/06/04 06:30:08;;;;;;;6.35;1.58;;;14.30;99.90;;;;;;5108492;28;20879;-74
2023/06/04 06:32:35;;;;;;;7.95;1.95;;;14.30;99.90;;;;;;5075989;28;20414;-74
2023/06/04 06:35:01;;;;;;;5.70;1.75;;;14.40;99.90;;;;;;5105860;28;20432;-74
2023/06/04 06:37:26;;;;;;;9.30;1.70;;;14.40;99.90;;;;;;5105966;28;20983;-74
2023/06/04 06:39:52;;;;;;;8.23;1.77;;;14.40;99.90;;;;;;5095621;28;20396;-74
2023/06/04 06:42:19;;;;;;;4.90;1.77;;;14.50;99.90;;;;;;5093946;28;20394;-74
2023/06/04 06:44:44;;;;;;;7.43;1.63;;;14.50;99.90;;;;;;5077635;28;20435;-74
2023/06/04 06:47:13;;;;;;;5.75;1.50;;;14.50;99.90;;;;;;5105698;28;21293;-74
2023/06/04 06:49:39;;;;;;;7.53;1.80;;;14.60;99.90;;;;;;5107832;28;20400;-74
2023/06/04 06:52:05;;;;;;;6.73;1.70;;;14.60;99.90;;;;;;5105500;28;20401;-74
2023/06/04 06:54:31;;;;;;;7.30;1.60;;;14.60;99.90;;;;;;5107445;28;20425;-74
2023/06/04 06:56:57;;;;;;;6.13;1.48;;;14.70;99.90;;;;;;5104462;28;20397;-74
2023/06/04 06:59:23;;;;;;;4.63;1.38;;;14.80;99.90;;;;;;5095497;28;20400;-74
2023/06/04 07:01:49;;;;;;;5.45;1.60;;;14.80;99.90;;;;;;5085228;28;20492;-74
2023/06/04 07:04:14;;;;;;;7.90;1.50;;;14.80;99.90;;;;;;5104437;28;20408;-74
2023/06/04 07:06:40;;;;;;;7.77;1.67;;;14.80;99.90;;;;;;5103455;28;21405;-74
2023/06/04 07:09:05;;;;;;;6.65;1.50;;;15.00;99.90;;;;;;5105010;28;20392;-74
2023/06/04 07:11:31;;;;;;;6.03;1.40;;;15.00;99.90;;;;;;5105349;28;20407;-74
2023/06/04 07:13:57;;;;;;;5.88;1.45;;;15.00;99.90;;;;;;5105768;28;20867;-74
2023/06/04 07:16:23;;;;;;;10.57;1.93;;;15.10;99.90;;;;;;5102697;28;20412;-73
2023/06/04 07:18:51;;;;;;;4.93;1.52;;;15.10;99.90;;;;;;5097419;28;20493;-75
2023/06/04 07:21:19;;;;;;;5.82;1.75;;;15.20;99.90;;;;;;5097603;28;20412;-74
2023/06/04 07:23:49;;;;;;;4.10;1.15;;;15.20;99.90;;;;;;5094820;28;20404;-74
2023/06/04 07:26:15;;;;;;;5.73;1.33;;;15.30;99.90;;;;;;5084774;28;20977;-74
2023/06/04 07:28:41;;;;;;;6.57;1.20;;;15.30;99.90;;;;;;5104382;28;20440;-74
2023/06/04 07:31:07;;;;;;;5.97;1.60;;;15.30;99.90;;;;;;5101704;28;20932;-74
2023/06/04 07:33:33;;;;;;;5.15;1.15;;;15.30;99.90;;;;;;5104087;28;20428;-74
2023/06/04 07:35:59;;;;;;;6.93;1.42;;;15.40;99.90;;;;;;5101244;28;20489;-74
2023/06/04 07:38:26;;;;;;;5.50;1.20;;;15.50;99.90;;;;;;5105185;28;20419;-74
2023/06/04 07:40:52;;;;;;;6.43;1.63;;;15.50;99.90;;;;;;5100096;28;20793;-74
2023/06/04 07:43:18;;;;;;;4.33;1.27;;;15.60;99.90;;;;;;5095139;28;20408;-74
2023/06/04 07:45:44;;;;;;;4.93;1.30;;;15.60;99.90;;;;;;5102414;28;21006;-75
2023/06/04 07:48:12;;;;;;;5.95;1.33;;;15.70;99.90;;;;;;5095919;28;20408;-74
2023/06/04 07:50:39;;;;;;;4.75;1.45;;;15.80;99.90;;;;;;5093760;28;20528;-75
2023/06/04 07:53:06;;;;;;;4.05;1.13;;;15.90;99.90;;;;;;5081431;28;20439;-75
2023/06/04 07:55:33;;;;;;;3.80;1.20;;;15.90;99.90;;;;;;5087833;28;20398;-75
2023/06/04 07:57:58;;;;;;;5.70;1.15;;;15.90;99.90;;;;;;5073188;28;20898;-74
2023/06/04 08:00:24;;;;;;;3.72;1.10;;;15.90;99.90;;;;;;5084941;28;20405;-75
2023/06/04 08:02:50;;;;;;;5.07;1.00;;;16.00;99.90;;;;;;5087943;28;20415;-75
2023/06/04 08:05:16;;;;;;;4.72;1.00;;;16.00;99.90;;;;;;5081807;28;20401;-75
2023/06/04 08:07:43;;;;;;;3.72;1.10;;;16.10;99.90;;;;;;5073941;28;20426;-74
2023/06/04 08:10:09;;;;;;;5.03;0.80;;;16.10;99.90;;;;;;5086994;28;21138;-74
2023/06/04 08:12:35;;;;;;;3.70;1.13;;;16.20;99.90;;;;;;5066177;28;20423;-75
2023/06/04 08:15:00;;;;;;;4.93;1.10;;;16.20;99.90;;;;;;5087184;28;20780;-75
2023/06/04 08:17:26;;;;;;;3.73;1.20;;;16.20;99.90;;;;;;5092210;28;20412;-75
2023/06/04 08:19:52;;;;;;;2.97;1.00;;;16.30;99.90;;;;;;5089361;28;20409;-74
2023/06/04 08:22:17;;;;;;;2.93;0.83;;;16.30;99.90;;;;;;5080213;28;20446;-74
2023/06/04 08:24:43;;;;;;;6.82;1.20;;;16.30;99.90;;;;;;5091364;28;20406;-71
2023/06/04 08:27:09;;;;;;;4.75;1.00;;;16.30;99.90;;;;;;5095758;28;20746;-73
2023/06/04 08:29:38;;;;;;;6.90;1.70;;;16.40;99.90;;;;;;5091166;28;20417;-74
2023/06/04 08:32:04;;;;;;;4.35;0.90;;;16.40;99.90;;;;;;5087390;28;20487;-74
2023/06/04 08:34:30;;;;;;;3.63;0.85;;;16.50;99.90;;;;;;5087623;28;20461;-75
2023/06/04 08:36:56;;;;;;;4.43;1.10;;;16.60;99.90;;;;;;5092874;28;20462;-75
2023/06/04 08:39:23;;;;;;;3.78;1.15;;;16.80;99.90;;;;;;5094088;28;20421;-75
2023/06/04 08:41:59;;;;;;;5.47;1.40;;;16.80;99.90;;;;;;5095310;28;20416;-75
2023/06/04 08:44:25;;;;;;;3.65;0.93;;;16.90;99.90;;;;;;5101535;28;20415;-74
2023/06/04 08:46:56;;;;;;;3.50;1.27;;;16.90;99.90;;;;;;5083931;28;20413;-74
2023/06/04 08:49:23;;;;;;;4.28;1.17;;;17.00;99.90;;;;;;5092815;28;20416;-74
2023/06/04 08:51:49;;;;;;;5.00;1.20;;;17.10;99.90;;;;;;5100658;28;20552;-74
2023/06/04 08:54:15;;;;;;;3.95;1.25;;;17.10;99.90;;;;;;5088719;28;20536;-74
2023/06/04 08:56:41;;;;;;;4.67;1.10;;;17.00;99.90;;;;;;5101349;28;20427;-74
2023/06/04 08:59:10;;;;;;;4.85;1.10;;;17.00;99.90;;;;;;5101693;28;20415;-74
2023/06/04 09:01:41;;;;;;;3.80;1.00;;;17.00;99.90;;;;;;5090366;28;21635;-74
2023/06/04 09:04:07;;;;;;;5.15;1.13;;;17.00;99.90;;;;;;5107679;28;20441;-75
2023/06/04 09:06:33;;;;;;;4.47;1.08;;;17.10;99.90;;;;;;5095445;28;20783;-74
2023/06/04 09:09:08;;;;;;;4.85;1.10;;;17.10;99.90;;;;;;5091873;28;20414;-75
2023/06/04 09:11:39;;;;;;;2.80;1.00;;;17.10;99.90;;;;;;5095035;28;20407;-75
2023/06/04 09:14:09;;;;;;;4.00;0.85;;;17.20;99.90;;;;;;5093908;28;20525;-75
2023/06/04 09:16:52;;;;;;;5.43;1.20;;;17.20;99.90;;;;;;5096365;28;20413;-75
2023/06/04 09:19:19;;;;;;;6.05;1.20;;;17.20;99.90;;;;;;5097908;28;20953;-75
2023/06/04 09:21:48;;;;;;;3.45;1.00;;;17.30;99.90;;;;;;5105475;28;20781;-74
2023/06/04 09:24:14;;;;;;;4.55;1.20;;;17.30;99.90;;;;;;5090066;28;20410;-75
2023/06/04 09:26:39;;;;;;;4.90;1.30;;;17.40;99.90;;;;;;5097491;28;20775;-75
2023/06/04 09:29:05;;;;;;;5.50;1.40;;;17.50;99.90;;;;;;5088591;28;20962;-75
2023/06/04 09:31:36;;;;;;;5.45;1.35;;;17.70;99.90;;;;;;5090692;28;20551;-75
2023/06/04 09:34:03;;;;;;;4.22;1.08;;;18.00;99.90;;;;;;5088552;28;20438;-75
2023/06/04 09:36:35;;;;;;;5.35;1.33;;;18.20;99.90;;;;;;5104119;28;20407;-75
2023/06/04 09:39:03;;;;;;;5.15;1.08;;;18.40;99.90;;;;;;5104107;28;20936;-75
2023/06/04 09:41:29;;;;;;;4.25;1.20;;;18.60;99.90;;;;;;5088930;28;20418;-75
2023/06/04 09:44:05;;;;;;;5.30;1.33;;;18.80;99.90;;;;;;5088166;28;20414;-74
2023/06/04 09:46:31;;;;;;;4.17;1.10;;;19.00;99.90;;;;;;5079186;28;20445;-74
2023/06/04 09:49:04;;;;;;;3.97;1.23;;;19.20;99.90;;;;;;5090201;28;20470;-75
2023/06/04 09:51:31;;;;;;;3.35;1.10;;;19.30;99.90;;;;;;5098986;28;20897;-75
2023/06/04 09:53:59;;;;;;;3.13;0.93;;;19.50;99.90;;;;;;5091938;28;20510;-76
2023/06/04 09:56:26;;;;;;;4.18;1.08;;;19.60;99.90;;;;;;5107046;27;20403;-75
2023/06/04 09:58:57;;;;;;;3.92;1.02;;;19.70;99.90;;;;;;5091843;28;20398;-75
2023/06/04 10:01:26;;;;;;;3.57;1.10;;;19.70;99.90;;;;;;5105322;28;20408;-75
2023/06/04 10:03:52;;;;;;;;;;;19.70;99.90;;;;;;5103243;28;20067;-75
2023/06/04 10:06:18;;;;;;;;;;;19.80;99.90;;;;;;5105569;28;19957;-75
2023/06/04 10:08:45;;;;;;;;;;;19.90;99.90;;;;;;5102738;28;20046;-75
2023/06/04 10:11:11;;;;;;;;;;;20.00;99.90;;;;;;5106024;28;19920;-75
2023/06/04 10:13:47;;;;;;;;;;;20.10;99.90;;;;;;5101510;28;20218;-75
2023/06/04 10:16:13;;;;;;;;;;;20.20;99.90;;;;;;5104803;28;19993;-75
2023/06/04 10:18:39;;;;;;;;;;;20.30;99.90;;;;;;5103841;28;19928;-75
2023/06/04 10:21:06;;;;;;;;;;;20.40;99.90;;;;;;5103504;28;19919;-75
2023/06/04 10:23:31;;;;;;;;;;;20.50;99.90;;;;;;5103652;28;19920;-75
2023/06/04 10:25:57;;;;;;;;;;;20.70;99.90;;;;;;5103933;28;19924;-75
2023/06/04 10:28:23;;;;;;;;;;;20.90;99.90;;;;;;5103699;28;20037;-75
2023/06/04 10:30:50;;;;;;;;;;;20.80;99.90;;;;;;5093062;28;20014;-75
2023/06/04 10:33:20;;;;;;;;;;;21.00;99.90;;;;;;5102437;28;19930;-75
2023/06/04 10:35:45;;;;;;;;;;;21.10;99.90;;;;;;5102634;28;19959;-75
2023/06/04 10:38:13;;;;;;;;;;;21.20;99.90;;;;;;5104186;28;20412;-75
2023/06/04 10:40:39;;;;;;;;;;;21.10;99.90;;;;;;5093845;28;19981;-75
2023/06/04 10:43:05;;;;;;;;;;;21.20;99.90;;;;;;5095480;28;19920;-75
2023/06/04 10:45:31;;;;;;;;;;;21.30;99.60;;;;;;5106461;28;19919;-75
2023/06/04 10:48:03;;;;;;;;;;;21.50;99.50;;;;;;5100385;28;19920;-76
2023/06/04 10:50:29;;;;;;;;;;;21.70;99.00;;;;;;5100318;28;19955;-75
2023/06/04 10:52:56;;;;;;;;;;;21.70;97.20;;;;;;5107433;28;20016;-75
2023/06/04 10:55:21;;;;;;;;;;;21.70;98.30;;;;;;5105478;28;19926;-75
2023/06/04 10:57:54;;;;;;;;;;;21.70;97.40;;;;;;5096534;28;19923;-75
2023/06/04 11:00:20;;;;;;;;;;;21.60;96.50;;;;;;5102733;28;19927;-75
2023/06/04 11:02:55;;;;;;;;;;;21.70;97.60;;;;;;5105665;28;19919;-75
2023/06/04 11:05:21;;;;;;;;;;;21.90;97.30;;;;;;5100349;28;19927;-75
2023/06/04 11:07:48;;;;;;;;;;;22.20;96.80;;;;;;5097941;28;19923;-75
2023/06/04 11:10:14;;;;;;;;;;;22.30;95.90;;;;;;5102365;28;19920;-75
2023/06/04 11:12:47;;;;;;;;;;;22.30;96.10;;;;;;5106895;28;19963;-75
2023/06/04 11:15:13;;;;;;;;;;;22.40;94.50;;;;;;5098628;28;19924;-75
2023/06/04 11:17:49;;;;;;;;;;;22.40;93.30;;;;;;5097965;28;19961;-75
2023/06/04 11:20:18;;;;;;;;;;;22.40;93.30;;;;;;5099180;28;19919;-75
2023/06/04 11:22:58;;;;;;;;;;;22.30;93.60;;;;;;5106315;28;19920;-75
2023/06/04 11:25:24;;;;;;;;;;;22.30;94.20;;;;;;5105795;28;20317;-75
2023/06/04 11:27:51;;;;;;;;;;;22.40;93.40;;;;;;5103399;28;19927;-75
2023/06/04 11:30:17;;;;;;;;;;;22.50;93.80;;;;;;5105663;28;19926;-75
2023/06/04 11:32:43;;;;;;;2.38;0.88;;;22.50;93.00;;;;;;5102588;28;20320;-75
2023/06/04 11:35:13;;;;;;;3.35;1.10;;;22.50;92.90;;;;;;5104293;28;20467;-75
2023/06/04 11:37:39;;;;;;;3.47;0.90;;;22.60;93.40;;;;;;5099371;28;20566;-75
2023/06/04 11:40:26;;;;;;;4.55;0.90;;;22.80;92.20;;;;;;5103503;28;20789;-75
2023/06/04 11:42:52;;;;;;;2.97;0.77;;;22.80;92.80;;;;;;5061792;28;20408;-75
2023/06/04 11:45:20;;;;;;;4.47;0.85;;;22.80;92.00;;;;;;5106851;28;20418;-75
2023/06/04 11:47:48;;;;;;;2.92;0.80;;;22.70;92.20;;;;;;5100495;28;20847;-75
2023/06/04 11:50:14;;;;;;;2.72;1.00;;;22.70;92.30;;;;;;5099748;28;20484;-75
2023/06/04 11:52:41;;;;;;;3.03;0.73;;;22.80;91.70;;;;;;5104902;28;20459;-75
2023/06/04 11:55:11;;;;;;;3.55;0.90;;;22.80;92.40;;;;;;5106162;28;20424;-75
2023/06/04 11:57:38;;;;;;;3.47;1.00;;;22.90;91.80;;;;;;5093745;28;20768;-75
2023/06/04 12:00:09;;;;;;;2.70;0.80;;;23.00;92.20;;;;;;5104744;28;20393;-75
2023/06/04 12:02:36;;;;;;;3.47;1.00;;;23.10;91.50;;;;;;5104975;28;20453;-75
2023/06/04 12:05:12;;;;;;;5.57;1.23;;;23.20;92.10;;;;;;5102530;28;20404;-75
2023/06/04 12:07:38;;;;;;;3.42;0.80;;;23.40;90.00;;;;;;5085183;28;20795;-75
2023/06/04 12:10:08;;;;;;;2.50;1.03;;;23.40;90.50;;;;;;5102753;28;20398;-75
2023/06/04 12:12:35;;;;;;;3.60;0.80;;;23.30;90.70;;;;;;5106208;28;20404;-75
2023/06/04 12:15:00;;;;;;;2.90;0.82;;;23.40;91.00;;;;;;5103135;28;20835;-75
2023/06/04 12:17:27;;;;;;;3.77;1.03;;;23.40;88.90;;;;;;5105291;28;20400;-76
2023/06/04 12:19:52;;;;;;;3.67;0.77;;;23.40;89.90;;;;;;5073415;28;20410;-76
2023/06/04 12:22:18;;;;;;;3.25;0.80;;;23.50;90.40;;;;;;5097116;28;20396;-76
2023/06/04 12:24:52;;;;;;;3.30;0.90;;;23.60;90.40;;;;;;5100644;28;20409;-76
2023/06/04 12:27:19;;;;;;;4.22;0.90;;;23.70;90.40;;;;;;5103626;28;20409;-75
2023/06/04 12:29:58;;;;;;;;;;;23.70;89.70;;;;;;5085770;28;20114;-76
2023/06/04 12:32:24;;;;;;;;;;;23.70;88.40;;;;;;5106039;28;20384;-76
2023/06/04 12:34:49;;;;;;;;;;;23.60;88.00;;;;;;5104989;28;19959;-76
2023/06/04 12:37:15;;;;;;;;;;;23.60;86.70;;;;;;5109236;28;20434;-76
2023/06/04 12:39:40;;;;;;;;;;;23.70;88.10;;;;;;5108230;28;19919;-76
2023/06/04 12:42:07;;;;;;;;;;;23.60;86.10;;;;;;5097908;28;19920;-76
2023/06/04 12:44:32;;;;;;;;;;;23.60;87.80;;;;;;5109538;28;19919;-76
2023/06/04 12:46:58;;;;;;;;;;;23.60;87.80;;;;;;5109993;28;19928;-76
2023/06/04 12:49:24;;;;;;;;;;;23.50;87.10;;;;;;5105552;28;19919;-76
2023/06/04 12:51:49;;;;;;;;;;;23.40;85.90;;;;;;5110094;28;20300;-76
2023/06/04 12:54:15;;;;;;;;;;;23.40;87.90;;;;;;5107137;28;20349;-76
2023/06/04 12:56:43;;;;;;;;;;;23.60;88.10;;;;;;5109011;28;19929;-75